Inglewood, Washington
Current Conditions -  °F | °C
As of 10:53 PM on Wednesday 22 Oct 2014 (Local Time) from KPAE Reporting Station
Broken Clouds Broken Clouds  
Wind Chill: 55°   Ceiling: 10000
Heat Index: 55°   Visibility: 10mi
Dew Point: 51°   Wind: 22mph
Humidity: 86%   Direction: 190°S
Pressure: 29.65"   Gusts: 31mph
Location:  47.7527°N, 122.215°W
Report Text: KPAE 230553Z AUTO 19019G27KT 10SM FEW013 BKN100 13/11 A2965 RMK AO2 PK WND 19028/0536 PRESRR SLP041 60019 T01280106 10128 20122 53030
Loading
Personal Weather Stations






























Interactive Weather Map
Tropical Storm Tracking
New forecast layout! Learn more

10-Day Weather Forecast

Advertisements
Track Severe Weather on mobile